London, California
Current Conditions -  °F | °C
As of 9:55 AM on Saturday 25 Oct 2014 (Local Time) from KVIS Reporting Station
Clear Clear  
Wind Chill: 66°   Ceiling: Unl
Heat Index: 66°   Visibility: 10mi
Dew Point: 48°   Wind: 5mph
Humidity: 52%   Direction: 130°SE
Pressure: 30.07"   Gusts: NA
Location:  36.5216°N, 119.386°W
Report Text: KVIS 251655Z 13004KT 10SM CLR 19/09 A3007 RMK AO1
Loading
Personal Weather Stations






























Interactive Weather Map
Tropical Storm Tracking
New forecast layout! Learn more

10-Day Weather Forecast

Advertisements
Track Severe Weather on mobile